Airfield :
LOGIN :

Register | Disclaimer

   EN    FR    IT 

 










Legend :    VFR   Marginal VFR   IFR   Intensive IFR   Very Intensive IFR
Visi :
Ceiling :
>= 8 km
>= 3000ft
5 to 8 km
1000 to 3000 ft
1500m to 5 km
500 to 1000 ft
800 to 1500m
200 to 500 ft
< 800m
< 200 ft
Symbols :   Thunderstorms  Fog  Heavy snow  Heavy precipitations  Wind > 20 kt
SIGMETs :     Misc.  Thunderstorms  Icing  Turbulence  Mountain Waves  Volcanic Ashes







- Airport Elevation : 56 ft


LPOV - Ovar Air Base

CURRENT METAR :
  • 300100Z 35005KT 9999 SCT016 17/15 Q1018

EXPIRED METARs :
  • 300000Z 36005KT 9999 FEW010 BKN016 17/16 Q1018
  • 292300Z 35008KT 9999 FEW010 BKN015 17/15 Q1018
  • 292200Z 35005KT 9999 SCT014 17/15 Q1018

TAF TAF LPOV
Valid from the 30 at 00:00 until the 31 at 00:00 UTC


292302Z 3000/3024 36005KT 9999 SCT020
TEMPO 3000/3008 SCT010 BKN012
PROB40 3000/3007 3000 BR BKN004
BECMG 3011/3013 31010KT
TEMPO 3015/3019 32010G20KT
No reported NOTAMs for that airfield.



MET'MAP, your aeronautical weather chart ! - Copyright ORBIFLY December 2007 - Disclaimer

ORBIFLY MET'MAP TEAM :

Programming & Development : Alexandra Zaïnal
Concept & Development : Baudouin d'Aumeries
Co-Development & Prog : Marc-Olivier Méhu
Technical & hardware support : Manuel Goepfert

Contact : metmap@orbifly.com




SOURCES & CREDITS :

   NOAA